If you wish to contribute or participate in the discussions about articles you are invited to join SKYbrary as a registered user

 Actions

Antananarivo/Ivato International Airport

From SKYbrary Wiki

FMMI /
Revision as of 15:00, 1 December 2014 by Editor1 (talk | contribs)
Airport
ICAO: FMMI – IATA: TNR
Summary
Name Antananarivo/Ivato International Airport
Region Africa
Territory Madagascar MG.gif
Location Antananarivo
Serving Antananarivo
Elevation 1,279.55 m
4,198 ft
4,198 ft1,279.55 m
Coordinates 18° 47' 47.00" S, 47° 28' 34.00" E
Runways
Designator Length Width Surface ROPS
11/29 3100 m10,170.604 ft
45 m147.638 ft
ASP yes/yes


METAR
Observation FMMI 201200Z 09011KT 050V140 9999 SCT023 25/12 Q1021 NOSIG
Station Antananarivo / Ivato
Date/Time 20 September 2019 12:00:00
Wind direction 90°
Wind speed 11 kts
Lowest cloud amount scattered clouds
Temperature 25°C
Dew point 12°C
Humidity 44%
QNH 1021 hPa
Weather condition n/a

Antananarivo/Ivato International Airport

ICAO: FMMI IATA: TNR

Description

International airport serving Antananarivo, the capital city of Madagascar.

Climatology

Antananarivo has a sub-tropical highland climate (Köppen climate classification Cwb) characterised by mild, dry winters and warm, rainy summers.

Maps

Terrain

Loading map...

Airport Layout

Loading map...


Accidents & Serious Incidents at or in vicinity of FMMI

None on SKYbrary